sensor_id;sensor_type;location;lat;lon;timestamp;P1;durP1;ratioP1;P2;durP2;ratioP2
75912;SDS011;64592;52.168;21.040;2023-07-31T00:00:51;3.65;;;2.75;;
75912;SDS011;64592;52.168;21.040;2023-07-31T00:05:54;6.13;;;2.80;;
75912;SDS011;64592;52.168;21.040;2023-07-31T00:10:56;4.20;;;2.83;;
75912;SDS011;64592;52.168;21.040;2023-07-31T00:15:57;4.53;;;2.58;;
75912;SDS011;64592;52.168;21.040;2023-07-31T00:21:00;3.80;;;2.72;;
75912;SDS011;64592;52.168;21.040;2023-07-31T00:26:02;4.05;;;2.50;;
75912;SDS011;64592;52.168;21.040;2023-07-31T00:31:04;4.70;;;2.90;;
75912;SDS011;64592;52.168;21.040;2023-07-31T00:36:07;4.97;;;2.78;;
75912;SDS011;64592;52.168;21.040;2023-07-31T00:41:08;3.63;;;2.40;;
75912;SDS011;64592;52.168;21.040;2023-07-31T00:46:10;3.15;;;2.10;;
75912;SDS011;64592;52.168;21.040;2023-07-31T00:51:13;4.60;;;2.58;;
75912;SDS011;64592;52.168;21.040;2023-07-31T00:56:15;3.13;;;2.42;;
75912;SDS011;64592;52.168;21.040;2023-07-31T01:01:17;4.00;;;2.47;;
75912;SDS011;64592;52.168;21.040;2023-07-31T01:06:22;3.55;;;2.47;;
75912;SDS011;64592;52.168;21.040;2023-07-31T01:11:28;5.03;;;2.30;;
75912;SDS011;64592;52.168;21.040;2023-07-31T01:16:31;3.47;;;2.45;;
75912;SDS011;64592;52.168;21.040;2023-07-31T01:21:53;4.10;;;2.75;;
75912;SDS011;64592;52.168;21.040;2023-07-31T01:27:09;3.33;;;2.45;;
75912;SDS011;64592;52.168;21.040;2023-07-31T01:32:14;3.35;;;2.40;;
75912;SDS011;64592;52.168;21.040;2023-07-31T01:37:17;4.00;;;2.60;;
75912;SDS011;64592;52.168;21.040;2023-07-31T01:42:20;7.03;;;3.83;;
75912;SDS011;64592;52.168;21.040;2023-07-31T01:47:22;4.70;;;2.63;;
75912;SDS011;64592;52.168;21.040;2023-07-31T01:52:24;3.53;;;2.58;;
75912;SDS011;64592;52.168;21.040;2023-07-31T01:57:27;2.80;;;2.35;;
75912;SDS011;64592;52.168;21.040;2023-07-31T02:02:29;4.18;;;3.30;;
75912;SDS011;64592;52.168;21.040;2023-07-31T02:07:31;4.38;;;2.75;;
75912;SDS011;64592;52.168;21.040;2023-07-31T02:12:34;4.00;;;2.80;;
75912;SDS011;64592;52.168;21.040;2023-07-31T02:17:35;3.83;;;2.92;;
75912;SDS011;64592;52.168;21.040;2023-07-31T02:22:37;6.60;;;3.03;;
75912;SDS011;64592;52.168;21.040;2023-07-31T02:27:40;3.95;;;2.80;;
75912;SDS011;64592;52.168;21.040;2023-07-31T02:32:42;3.97;;;2.97;;
75912;SDS011;64592;52.168;21.040;2023-07-31T02:37:44;4.53;;;3.28;;
75912;SDS011;64592;52.168;21.040;2023-07-31T02:42:47;4.35;;;3.20;;
75912;SDS011;64592;52.168;21.040;2023-07-31T02:47:48;5.55;;;3.00;;
75912;SDS011;64592;52.168;21.040;2023-07-31T02:52:50;6.07;;;3.30;;
75912;SDS011;64592;52.168;21.040;2023-07-31T02:57:53;3.78;;;3.05;;
75912;SDS011;64592;52.168;21.040;2023-07-31T03:02:55;3.80;;;3.05;;
75912;SDS011;64592;52.168;21.040;2023-07-31T03:07:56;6.80;;;3.28;;
75912;SDS011;64592;52.168;21.040;2023-07-31T03:12:59;5.32;;;3.35;;
75912;SDS011;64592;52.168;21.040;2023-07-31T03:18:01;6.03;;;3.55;;
75912;SDS011;64592;52.168;21.040;2023-07-31T03:23:03;7.60;;;3.28;;
75912;SDS011;64592;52.168;21.040;2023-07-31T03:28:06;5.50;;;3.08;;
75912;SDS011;64592;52.168;21.040;2023-07-31T03:33:07;4.70;;;3.60;;
75912;SDS011;64592;52.168;21.040;2023-07-31T03:38:09;4.13;;;3.22;;
75912;SDS011;64592;52.168;21.040;2023-07-31T03:43:12;5.00;;;3.38;;
75912;SDS011;64592;52.168;21.040;2023-07-31T03:48:14;4.72;;;3.17;;
75912;SDS011;64592;52.168;21.040;2023-07-31T03:53:16;3.92;;;2.92;;
75912;SDS011;64592;52.168;21.040;2023-07-31T03:58:19;5.00;;;3.47;;
75912;SDS011;64592;52.168;21.040;2023-07-31T04:03:21;4.93;;;3.25;;
75912;SDS011;64592;52.168;21.040;2023-07-31T04:08:23;4.15;;;3.10;;
75912;SDS011;64592;52.168;21.040;2023-07-31T04:13:26;4.88;;;3.28;;
75912;SDS011;64592;52.168;21.040;2023-07-31T04:18:28;5.43;;;2.95;;
75912;SDS011;64592;52.168;21.040;2023-07-31T04:23:31;4.30;;;3.22;;
75912;SDS011;64592;52.168;21.040;2023-07-31T04:28:34;4.95;;;3.60;;
75912;SDS011;64592;52.168;21.040;2023-07-31T04:33:35;4.53;;;3.10;;
75912;SDS011;64592;52.168;21.040;2023-07-31T04:38:37;4.60;;;3.35;;
75912;SDS011;64592;52.168;21.040;2023-07-31T04:43:40;5.07;;;2.90;;
75912;SDS011;64592;52.168;21.040;2023-07-31T04:48:42;6.25;;;3.63;;
75912;SDS011;64592;52.168;21.040;2023-07-31T04:53:44;4.90;;;3.33;;
75912;SDS011;64592;52.168;21.040;2023-07-31T04:58:47;5.10;;;3.55;;
75912;SDS011;64592;52.168;21.040;2023-07-31T05:03:48;7.15;;;3.70;;
75912;SDS011;64592;52.168;21.040;2023-07-31T05:08:50;4.72;;;3.13;;
75912;SDS011;64592;52.168;21.040;2023-07-31T05:13:53;8.30;;;3.60;;
75912;SDS011;64592;52.168;21.040;2023-07-31T05:18:55;6.32;;;3.55;;
75912;SDS011;64592;52.168;21.040;2023-07-31T05:23:56;5.57;;;3.63;;
75912;SDS011;64592;52.168;21.040;2023-07-31T05:28:59;4.97;;;3.55;;
75912;SDS011;64592;52.168;21.040;2023-07-31T05:34:01;6.20;;;3.45;;
75912;SDS011;64592;52.168;21.040;2023-07-31T05:39:03;4.65;;;3.17;;
75912;SDS011;64592;52.168;21.040;2023-07-31T05:44:09;7.57;;;3.10;;
75912;SDS011;64592;52.168;21.040;2023-07-31T05:49:11;5.20;;;2.72;;
75912;SDS011;64592;52.168;21.040;2023-07-31T05:54:13;4.43;;;3.25;;
75912;SDS011;64592;52.168;21.040;2023-07-31T05:59:16;5.80;;;3.22;;
75912;SDS011;64592;52.168;21.040;2023-07-31T06:04:17;4.80;;;3.45;;
75912;SDS011;64592;52.168;21.040;2023-07-31T06:09:19;4.40;;;2.95;;
75912;SDS011;64592;52.168;21.040;2023-07-31T06:14:22;5.70;;;3.65;;
75912;SDS011;64592;52.168;21.040;2023-07-31T06:19:24;7.25;;;3.28;;
75912;SDS011;64592;52.168;21.040;2023-07-31T06:24:26;7.30;;;3.28;;
75912;SDS011;64592;52.168;21.040;2023-07-31T06:29:29;10.75;;;3.67;;
75912;SDS011;64592;52.168;21.040;2023-07-31T06:34:30;6.85;;;3.40;;
75912;SDS011;64592;52.168;21.040;2023-07-31T06:39:32;6.53;;;2.95;;
75912;SDS011;64592;52.168;21.040;2023-07-31T06:44:35;5.90;;;3.60;;
75912;SDS011;64592;52.168;21.040;2023-07-31T06:49:37;5.50;;;2.72;;
75912;SDS011;64592;52.168;21.040;2023-07-31T06:54:38;5.80;;;3.28;;
75912;SDS011;64592;52.168;21.040;2023-07-31T06:59:41;5.97;;;2.97;;
75912;SDS011;64592;52.168;21.040;2023-07-31T07:04:43;5.18;;;3.38;;
75912;SDS011;64592;52.168;21.040;2023-07-31T07:09:45;8.18;;;3.88;;
75912;SDS011;64592;52.168;21.040;2023-07-31T07:14:48;7.57;;;3.30;;
75912;SDS011;64592;52.168;21.040;2023-07-31T07:19:49;5.95;;;3.25;;
75912;SDS011;64592;52.168;21.040;2023-07-31T07:24:51;4.72;;;3.50;;
75912;SDS011;64592;52.168;21.040;2023-07-31T07:29:54;6.05;;;3.58;;
75912;SDS011;64592;52.168;21.040;2023-07-31T07:34:56;7.90;;;3.60;;
75912;SDS011;64592;52.168;21.040;2023-07-31T07:39:58;7.13;;;3.80;;
75912;SDS011;64592;52.168;21.040;2023-07-31T07:45:01;4.70;;;3.17;;
75912;SDS011;64592;52.168;21.040;2023-07-31T07:50:03;5.45;;;3.03;;
75912;SDS011;64592;52.168;21.040;2023-07-31T07:55:05;5.65;;;3.65;;
75912;SDS011;64592;52.168;21.040;2023-07-31T08:00:09;7.40;;;3.50;;
75912;SDS011;64592;52.168;21.040;2023-07-31T08:05:11;4.57;;;3.22;;
75912;SDS011;64592;52.168;21.040;2023-07-31T08:10:13;5.70;;;3.53;;
75912;SDS011;64592;52.168;21.040;2023-07-31T08:15:16;7.38;;;3.58;;
75912;SDS011;64592;52.168;21.040;2023-07-31T08:20:18;7.55;;;3.13;;
75912;SDS011;64592;52.168;21.040;2023-07-31T08:25:20;4.65;;;2.60;;
75912;SDS011;64592;52.168;21.040;2023-07-31T08:30:23;6.75;;;3.80;;
75912;SDS011;64592;52.168;21.040;2023-07-31T08:35:24;6.68;;;3.10;;
75912;SDS011;64592;52.168;21.040;2023-07-31T08:40:28;5.40;;;3.10;;
75912;SDS011;64592;52.168;21.040;2023-07-31T08:45:31;6.90;;;3.38;;
75912;SDS011;64592;52.168;21.040;2023-07-31T08:50:33;5.32;;;3.20;;
75912;SDS011;64592;52.168;21.040;2023-07-31T09:00:40;7.68;;;3.47;;
75912;SDS011;64592;52.168;21.040;2023-07-31T09:05:45;8.27;;;3.50;;
75912;SDS011;64592;52.168;21.040;2023-07-31T09:10:48;6.47;;;3.35;;
75912;SDS011;64592;52.168;21.040;2023-07-31T09:15:52;6.60;;;3.10;;
75912;SDS011;64592;52.168;21.040;2023-07-31T09:21:00;5.43;;;2.97;;
75912;SDS011;64592;52.168;21.040;2023-07-31T09:26:03;6.38;;;2.85;;
75912;SDS011;64592;52.168;21.040;2023-07-31T09:31:06;5.25;;;2.72;;
75912;SDS011;64592;52.168;21.040;2023-07-31T09:36:07;4.43;;;2.58;;
75912;SDS011;64592;52.168;21.040;2023-07-31T09:41:09;5.35;;;2.53;;
75912;SDS011;64592;52.168;21.040;2023-07-31T09:46:14;5.75;;;2.85;;
75912;SDS011;64592;52.168;21.040;2023-07-31T09:51:15;4.43;;;2.60;;
75912;SDS011;64592;52.168;21.040;2023-07-31T09:56:17;6.22;;;2.95;;
75912;SDS011;64592;52.168;21.040;2023-07-31T10:01:23;3.75;;;3.20;;
75912;SDS011;64592;52.168;21.040;2023-07-31T10:06:26;4.32;;;2.72;;
75912;SDS011;64592;52.168;21.040;2023-07-31T10:11:28;4.55;;;2.70;;
75912;SDS011;64592;52.168;21.040;2023-07-31T10:16:33;3.92;;;2.30;;
75912;SDS011;64592;52.168;21.040;2023-07-31T10:21:36;4.88;;;2.35;;
75912;SDS011;64592;52.168;21.040;2023-07-31T10:26:38;3.58;;;2.30;;
75912;SDS011;64592;52.168;21.040;2023-07-31T10:31:43;3.13;;;2.20;;
75912;SDS011;64592;52.168;21.040;2023-07-31T10:36:46;2.95;;;1.98;;
75912;SDS011;64592;52.168;21.040;2023-07-31T10:41:49;3.75;;;2.05;;
75912;SDS011;64592;52.168;21.040;2023-07-31T10:46:55;5.95;;;2.30;;
75912;SDS011;64592;52.168;21.040;2023-07-31T10:51:57;4.68;;;2.15;;
75912;SDS011;64592;52.168;21.040;2023-07-31T10:56:58;4.80;;;2.05;;
75912;SDS011;64592;52.168;21.040;2023-07-31T11:02:01;4.60;;;2.13;;
75912;SDS011;64592;52.168;21.040;2023-07-31T11:07:03;2.92;;;2.05;;
75912;SDS011;64592;52.168;21.040;2023-07-31T11:12:08;3.97;;;1.85;;
75912;SDS011;64592;52.168;21.040;2023-07-31T11:17:11;6.88;;;2.05;;
75912;SDS011;64592;52.168;21.040;2023-07-31T11:22:13;4.75;;;2.17;;
75912;SDS011;64592;52.168;21.040;2023-07-31T11:27:16;4.22;;;2.20;;
75912;SDS011;64592;52.168;21.040;2023-07-31T11:32:19;3.10;;;2.00;;
75912;SDS011;64592;52.168;21.040;2023-07-31T11:37:21;3.92;;;2.20;;
75912;SDS011;64592;52.168;21.040;2023-07-31T11:42:23;4.35;;;2.25;;
75912;SDS011;64592;52.168;21.040;2023-07-31T11:47:26;3.88;;;2.08;;
75912;SDS011;64592;52.168;21.040;2023-07-31T11:52:28;6.10;;;2.88;;
75912;SDS011;64592;52.168;21.040;2023-07-31T11:57:32;4.38;;;2.00;;
75912;SDS011;64592;52.168;21.040;2023-07-31T12:02:35;4.47;;;2.35;;
75912;SDS011;64592;52.168;21.040;2023-07-31T12:07:43;3.75;;;2.15;;
75912;SDS011;64592;52.168;21.040;2023-07-31T12:12:54;3.72;;;2.38;;
75912;SDS011;64592;52.168;21.040;2023-07-31T12:17:58;2.63;;;1.92;;
75912;SDS011;64592;52.168;21.040;2023-07-31T12:23:00;4.22;;;2.20;;
75912;SDS011;64592;52.168;21.040;2023-07-31T12:28:06;4.82;;;1.95;;
75912;SDS011;64592;52.168;21.040;2023-07-31T12:33:15;4.60;;;1.83;;
75912;SDS011;64592;52.168;21.040;2023-07-31T12:38:19;4.78;;;2.30;;
75912;SDS011;64592;52.168;21.040;2023-07-31T12:43:21;2.50;;;1.90;;
75912;SDS011;64592;52.168;21.040;2023-07-31T12:48:24;3.88;;;2.28;;
75912;SDS011;64592;52.168;21.040;2023-07-31T12:53:26;3.95;;;2.17;;
75912;SDS011;64592;52.168;21.040;2023-07-31T12:58:28;6.28;;;2.10;;
75912;SDS011;64592;52.168;21.040;2023-07-31T13:03:31;4.63;;;2.05;;
75912;SDS011;64592;52.168;21.040;2023-07-31T13:08:32;4.22;;;2.20;;
75912;SDS011;64592;52.168;21.040;2023-07-31T13:13:34;5.18;;;2.40;;
75912;SDS011;64592;52.168;21.040;2023-07-31T13:18:37;4.13;;;2.00;;
75912;SDS011;64592;52.168;21.040;2023-07-31T13:23:38;7.63;;;3.25;;
75912;SDS011;64592;52.168;21.040;2023-07-31T13:28:40;7.25;;;6.15;;
75912;SDS011;64592;52.168;21.040;2023-07-31T13:33:43;7.95;;;4.55;;
75912;SDS011;64592;52.168;21.040;2023-07-31T13:38:45;8.85;;;5.10;;
75912;SDS011;64592;52.168;21.040;2023-07-31T13:43:46;7.80;;;4.70;;
75912;SDS011;64592;52.168;21.040;2023-07-31T13:48:49;8.82;;;5.03;;
75912;SDS011;64592;52.168;21.040;2023-07-31T13:53:51;10.38;;;5.65;;
75912;SDS011;64592;52.168;21.040;2023-07-31T13:58:53;9.45;;;5.25;;
75912;SDS011;64592;52.168;21.040;2023-07-31T14:03:56;6.72;;;4.20;;
75912;SDS011;64592;52.168;21.040;2023-07-31T14:08:57;7.43;;;4.13;;
75912;SDS011;64592;52.168;21.040;2023-07-31T14:13:59;8.57;;;4.60;;
75912;SDS011;64592;52.168;21.040;2023-07-31T14:19:03;4.78;;;2.85;;
75912;SDS011;64592;52.168;21.040;2023-07-31T14:24:05;8.13;;;2.58;;
75912;SDS011;64592;52.168;21.040;2023-07-31T14:29:06;4.38;;;2.30;;
75912;SDS011;64592;52.168;21.040;2023-07-31T14:34:09;3.65;;;2.40;;
75912;SDS011;64592;52.168;21.040;2023-07-31T14:39:11;5.10;;;2.63;;
75912;SDS011;64592;52.168;21.040;2023-07-31T14:44:13;6.10;;;2.78;;
75912;SDS011;64592;52.168;21.040;2023-07-31T14:49:16;4.97;;;2.17;;
75912;SDS011;64592;52.168;21.040;2023-07-31T14:54:17;5.68;;;2.22;;
75912;SDS011;64592;52.168;21.040;2023-07-31T14:59:19;5.47;;;2.20;;
75912;SDS011;64592;52.168;21.040;2023-07-31T15:04:22;6.72;;;2.33;;
75912;SDS011;64592;52.168;21.040;2023-07-31T15:09:24;5.97;;;2.40;;
75912;SDS011;64592;52.168;21.040;2023-07-31T15:14:25;3.00;;;2.10;;
75912;SDS011;64592;52.168;21.040;2023-07-31T15:19:29;5.07;;;2.20;;
75912;SDS011;64592;52.168;21.040;2023-07-31T15:24:34;4.20;;;2.10;;
75912;SDS011;64592;52.168;21.040;2023-07-31T15:29:36;4.20;;;2.20;;
75912;SDS011;64592;52.168;21.040;2023-07-31T15:34:39;6.85;;;2.08;;
75912;SDS011;64592;52.168;21.040;2023-07-31T15:39:41;4.10;;;2.25;;
75912;SDS011;64592;52.168;21.040;2023-07-31T15:44:42;5.15;;;2.42;;
75912;SDS011;64592;52.168;21.040;2023-07-31T15:49:46;3.88;;;2.08;;
75912;SDS011;64592;52.168;21.040;2023-07-31T15:54:47;7.20;;;2.78;;
75912;SDS011;64592;52.168;21.040;2023-07-31T15:59:49;6.22;;;2.35;;
75912;SDS011;64592;52.168;21.040;2023-07-31T16:04:52;5.57;;;2.75;;
75912;SDS011;64592;52.168;21.040;2023-07-31T16:09:53;4.25;;;2.13;;
75912;SDS011;64592;52.168;21.040;2023-07-31T16:14:55;4.18;;;2.00;;
75912;SDS011;64592;52.168;21.040;2023-07-31T16:19:58;5.63;;;2.38;;
75912;SDS011;64592;52.168;21.040;2023-07-31T16:25:00;4.68;;;2.60;;
75912;SDS011;64592;52.168;21.040;2023-07-31T16:30:02;3.95;;;2.50;;
75912;SDS011;64592;52.168;21.040;2023-07-31T16:35:06;4.43;;;2.47;;
75912;SDS011;64592;52.168;21.040;2023-07-31T16:40:09;6.00;;;2.33;;
75912;SDS011;64592;52.168;21.040;2023-07-31T16:45:11;4.32;;;2.40;;
75912;SDS011;64592;52.168;21.040;2023-07-31T16:50:14;5.00;;;2.38;;
75912;SDS011;64592;52.168;21.040;2023-07-31T16:55:16;5.85;;;2.90;;
75912;SDS011;64592;52.168;21.040;2023-07-31T17:00:19;4.32;;;2.50;;
75912;SDS011;64592;52.168;21.040;2023-07-31T17:05:22;5.00;;;2.67;;
75912;SDS011;64592;52.168;21.040;2023-07-31T17:10:24;19.27;;;3.95;;
75912;SDS011;64592;52.168;21.040;2023-07-31T17:15:26;5.10;;;2.70;;
75912;SDS011;64592;52.168;21.040;2023-07-31T17:20:30;5.53;;;2.70;;
75912;SDS011;64592;52.168;21.040;2023-07-31T17:25:33;4.78;;;2.60;;
75912;SDS011;64592;52.168;21.040;2023-07-31T17:30:34;5.05;;;2.28;;
75912;SDS011;64592;52.168;21.040;2023-07-31T17:35:37;6.03;;;2.50;;
75912;SDS011;64592;52.168;21.040;2023-07-31T17:40:39;5.00;;;2.83;;
75912;SDS011;64592;52.168;21.040;2023-07-31T17:45:41;4.03;;;2.60;;
75912;SDS011;64592;52.168;21.040;2023-07-31T17:50:44;8.43;;;2.67;;
75912;SDS011;64592;52.168;21.040;2023-07-31T17:55:50;4.63;;;2.60;;
75912;SDS011;64592;52.168;21.040;2023-07-31T18:00:52;4.57;;;2.67;;
75912;SDS011;64592;52.168;21.040;2023-07-31T18:05:55;4.18;;;2.30;;
75912;SDS011;64592;52.168;21.040;2023-07-31T18:10:57;4.75;;;2.45;;
75912;SDS011;64592;52.168;21.040;2023-07-31T18:15:59;3.92;;;2.28;;
75912;SDS011;64592;52.168;21.040;2023-07-31T18:21:02;4.97;;;2.95;;
75912;SDS011;64592;52.168;21.040;2023-07-31T18:26:03;4.80;;;2.63;;
75912;SDS011;64592;52.168;21.040;2023-07-31T18:31:05;5.78;;;2.65;;
75912;SDS011;64592;52.168;21.040;2023-07-31T18:36:08;5.78;;;3.13;;
75912;SDS011;64592;52.168;21.040;2023-07-31T18:41:10;7.38;;;2.72;;
75912;SDS011;64592;52.168;21.040;2023-07-31T18:46:12;5.32;;;3.10;;
75912;SDS011;64592;52.168;21.040;2023-07-31T18:51:15;5.07;;;2.85;;
75912;SDS011;64592;52.168;21.040;2023-07-31T18:56:17;6.43;;;3.67;;
75912;SDS011;64592;52.168;21.040;2023-07-31T19:01:19;4.15;;;2.78;;
75912;SDS011;64592;52.168;21.040;2023-07-31T19:06:22;8.85;;;2.85;;
75912;SDS011;64592;52.168;21.040;2023-07-31T19:11:24;6.80;;;3.55;;
75912;SDS011;64592;52.168;21.040;2023-07-31T19:16:25;7.60;;;3.38;;
75912;SDS011;64592;52.168;21.040;2023-07-31T19:21:28;6.38;;;3.28;;
75912;SDS011;64592;52.168;21.040;2023-07-31T19:26:30;6.13;;;3.10;;
75912;SDS011;64592;52.168;21.040;2023-07-31T19:31:32;6.50;;;3.15;;
75912;SDS011;64592;52.168;21.040;2023-07-31T19:36:35;6.13;;;3.20;;
75912;SDS011;64592;52.168;21.040;2023-07-31T19:41:36;6.85;;;3.58;;
75912;SDS011;64592;52.168;21.040;2023-07-31T19:46:39;6.38;;;2.92;;
75912;SDS011;64592;52.168;21.040;2023-07-31T19:51:42;6.03;;;3.50;;
75912;SDS011;64592;52.168;21.040;2023-07-31T19:56:44;7.43;;;4.10;;
75912;SDS011;64592;52.168;21.040;2023-07-31T20:01:48;5.68;;;3.30;;
75912;SDS011;64592;52.168;21.040;2023-07-31T20:06:51;5.38;;;3.30;;
75912;SDS011;64592;52.168;21.040;2023-07-31T20:11:53;6.90;;;3.63;;
75912;SDS011;64592;52.168;21.040;2023-07-31T20:16:55;10.50;;;4.80;;
75912;SDS011;64592;52.168;21.040;2023-07-31T20:21:58;8.20;;;3.55;;
75912;SDS011;64592;52.168;21.040;2023-07-31T20:27:00;8.75;;;3.20;;
75912;SDS011;64592;52.168;21.040;2023-07-31T20:32:01;7.88;;;3.13;;
75912;SDS011;64592;52.168;21.040;2023-07-31T20:37:05;12.27;;;3.72;;
75912;SDS011;64592;52.168;21.040;2023-07-31T20:42:06;8.40;;;3.50;;
75912;SDS011;64592;52.168;21.040;2023-07-31T20:47:11;7.78;;;3.40;;
75912;SDS011;64592;52.168;21.040;2023-07-31T20:52:14;6.03;;;3.33;;
75912;SDS011;64592;52.168;21.040;2023-07-31T20:57:16;7.50;;;3.50;;
75912;SDS011;64592;52.168;21.040;2023-07-31T21:02:17;9.60;;;3.50;;
75912;SDS011;64592;52.168;21.040;2023-07-31T21:07:20;8.00;;;3.90;;
75912;SDS011;64592;52.168;21.040;2023-07-31T21:12:22;4.93;;;3.03;;
75912;SDS011;64592;52.168;21.040;2023-07-31T21:17:24;9.90;;;3.50;;
75912;SDS011;64592;52.168;21.040;2023-07-31T21:22:27;6.10;;;4.07;;
75912;SDS011;64592;52.168;21.040;2023-07-31T21:27:29;7.47;;;3.53;;
75912;SDS011;64592;52.168;21.040;2023-07-31T21:32:30;6.53;;;3.20;;
75912;SDS011;64592;52.168;21.040;2023-07-31T21:37:33;7.35;;;3.15;;
75912;SDS011;64592;52.168;21.040;2023-07-31T21:42:36;4.43;;;2.90;;
75912;SDS011;64592;52.168;21.040;2023-07-31T21:47:37;5.85;;;3.60;;
75912;SDS011;64592;52.168;21.040;2023-07-31T21:52:40;5.85;;;3.20;;
75912;SDS011;64592;52.168;21.040;2023-07-31T21:57:42;6.60;;;3.53;;
75912;SDS011;64592;52.168;21.040;2023-07-31T22:02:43;6.50;;;3.13;;
75912;SDS011;64592;52.168;21.040;2023-07-31T22:07:47;5.18;;;3.38;;
75912;SDS011;64592;52.168;21.040;2023-07-31T22:12:48;5.18;;;3.17;;
75912;SDS011;64592;52.168;21.040;2023-07-31T22:17:50;7.07;;;3.80;;
75912;SDS011;64592;52.168;21.040;2023-07-31T22:22:53;7.13;;;3.10;;
75912;SDS011;64592;52.168;21.040;2023-07-31T22:27:55;5.88;;;3.55;;
75912;SDS011;64592;52.168;21.040;2023-07-31T22:32:56;7.97;;;4.15;;
75912;SDS011;64592;52.168;21.040;2023-07-31T22:37:59;6.78;;;3.53;;
75912;SDS011;64592;52.168;21.040;2023-07-31T22:43:01;5.30;;;4.00;;
75912;SDS011;64592;52.168;21.040;2023-07-31T22:48:03;7.22;;;3.53;;
75912;SDS011;64592;52.168;21.040;2023-07-31T22:53:06;4.60;;;3.13;;
75912;SDS011;64592;52.168;21.040;2023-07-31T22:58:07;6.80;;;2.80;;
75912;SDS011;64592;52.168;21.040;2023-07-31T23:03:09;5.35;;;3.33;;
75912;SDS011;64592;52.168;21.040;2023-07-31T23:08:12;8.00;;;3.38;;
75912;SDS011;64592;52.168;21.040;2023-07-31T23:13:14;4.72;;;3.63;;
75912;SDS011;64592;52.168;21.040;2023-07-31T23:18:16;5.57;;;3.50;;
75912;SDS011;64592;52.168;21.040;2023-07-31T23:23:19;6.65;;;3.35;;
75912;SDS011;64592;52.168;21.040;2023-07-31T23:28:21;8.50;;;3.60;;
75912;SDS011;64592;52.168;21.040;2023-07-31T23:33:22;6.68;;;3.30;;
75912;SDS011;64592;52.168;21.040;2023-07-31T23:38:25;4.38;;;3.13;;
75912;SDS011;64592;52.168;21.040;2023-07-31T23:43:27;5.20;;;3.35;;
75912;SDS011;64592;52.168;21.040;2023-07-31T23:48:29;5.65;;;3.75;;
75912;SDS011;64592;52.168;21.040;2023-07-31T23:53:32;6.07;;;2.90;;
75912;SDS011;64592;52.168;21.040;2023-07-31T23:58:33;5.40;;;3.22;;
